createdAt,value
2022-08-10T00:00:57.609Z,2.40
2022-08-10T00:06:01.025Z,2.40
2022-08-10T00:11:04.638Z,2.08
2022-08-10T00:16:18.971Z,2.35
2022-08-10T00:21:22.451Z,2.35
2022-08-10T00:27:52.603Z,2.70
2022-08-10T00:31:57.772Z,2.65
2022-08-10T00:37:04.897Z,2.55
2022-08-10T00:42:09.945Z,2.55
2022-08-10T00:47:35.871Z,2.80
2022-08-10T00:52:39.772Z,2.67
2022-08-10T00:57:42.862Z,2.70
2022-08-10T01:02:48.827Z,2.90
2022-08-10T01:08:03.937Z,3.00
2022-08-10T01:13:21.110Z,2.90
2022-08-10T01:18:37.987Z,2.67
2022-08-10T01:23:44.056Z,2.60
2022-08-10T01:29:18.652Z,2.92
2022-08-10T01:34:26.466Z,2.90
2022-08-10T01:39:33.578Z,3.20
2022-08-10T01:44:50.505Z,3.00
2022-08-10T01:50:01.474Z,3.00
2022-08-10T01:55:07.659Z,3.03
2022-08-10T02:00:13.684Z,3.10
2022-08-10T02:05:19.283Z,2.92
2022-08-10T02:10:24.072Z,2.97
2022-08-10T02:15:31.676Z,3.03
2022-08-10T02:20:44.345Z,3.10
2022-08-10T02:25:49.303Z,2.95
2022-08-10T02:30:55.041Z,2.90
2022-08-10T02:36:05.989Z,3.37
2022-08-10T02:42:18.794Z,3.00
2022-08-10T02:46:47.691Z,3.00
2022-08-10T02:52:07.780Z,3.17
2022-08-10T02:57:22.589Z,2.97
2022-08-10T03:02:31.343Z,3.38
2022-08-10T03:07:44.441Z,2.88
2022-08-10T03:12:52.690Z,3.30
2022-08-10T03:17:58.929Z,3.20
2022-08-10T03:23:06.321Z,3.35
2022-08-10T03:28:10.931Z,3.00
2022-08-10T03:33:23.557Z,3.10
2022-08-10T03:43:22.052Z,3.40
2022-08-10T03:48:47.092Z,3.28
2022-08-10T03:54:05.704Z,3.30
2022-08-10T03:59:13.611Z,3.10
2022-08-10T04:04:23.553Z,3.38
2022-08-10T04:09:53.639Z,3.40
2022-08-10T04:14:58.037Z,3.70
2022-08-10T04:20:02.879Z,3.65
2022-08-10T04:25:08.969Z,3.38
2022-08-10T04:30:12.666Z,3.45
2022-08-10T04:35:19.559Z,3.00
2022-08-10T04:40:29.709Z,3.47
2022-08-10T04:45:50.037Z,3.35
2022-08-10T04:50:54.938Z,3.45
2022-08-10T04:55:58.852Z,3.22
2022-08-10T05:01:03.346Z,3.10
2022-08-10T05:06:07.489Z,3.33
2022-08-10T05:11:10.931Z,2.92
2022-08-10T05:16:31.566Z,3.10
2022-08-10T05:21:59.814Z,2.95
2022-08-10T05:27:09.633Z,3.13
2022-08-10T05:32:14.430Z,2.72
2022-08-10T05:38:12.902Z,2.72
2022-08-10T05:42:42.685Z,2.78
2022-08-10T05:48:57.297Z,2.58
2022-08-10T05:53:23.155Z,2.75
2022-08-10T05:58:34.706Z,2.53
2022-08-10T06:03:48.934Z,2.67
2022-08-10T06:08:54.230Z,2.50
2022-08-10T06:14:18.419Z,2.78
2022-08-10T06:19:23.530Z,2.83
2022-08-10T06:24:30.234Z,2.53
2022-08-10T06:29:38.373Z,2.40
2022-08-10T06:34:48.425Z,2.58
2022-08-10T06:39:51.956Z,2.70
2022-08-10T06:45:12.965Z,2.28
2022-08-10T06:50:45.519Z,2.28
2022-08-10T06:56:05.224Z,2.00
2022-08-10T07:01:14.340Z,2.38
2022-08-10T07:06:20.624Z,2.28
2022-08-10T07:11:25.514Z,2.00
2022-08-10T07:16:30.976Z,1.92
2022-08-10T07:21:36.132Z,2.00
2022-08-10T07:26:46.810Z,1.80
2022-08-10T07:31:55.852Z,2.03
2022-08-10T07:37:04.196Z,2.35
2022-08-10T07:42:10.782Z,1.90
2022-08-10T07:47:18.185Z,1.70
2022-08-10T07:52:43.318Z,2.03
2022-08-10T07:57:52.173Z,1.98
2022-08-10T08:02:59.430Z,2.00
2022-08-10T08:08:04.415Z,1.85
2022-08-10T08:13:08.178Z,1.50
2022-08-10T08:18:13.066Z,1.90
2022-08-10T08:24:07.378Z,1.48
2022-08-10T08:28:43.486Z,1.75
2022-08-10T08:33:48.523Z,1.80
2022-08-10T08:38:52.532Z,1.60
2022-08-10T08:44:00.089Z,1.52
2022-08-10T08:50:05.198Z,1.63
2022-08-10T08:55:05.317Z,1.35
2022-08-10T09:00:44.526Z,1.60
2022-08-10T09:06:25.940Z,1.40
2022-08-10T09:11:46.534Z,1.52
2022-08-10T09:17:23.879Z,1.73
2022-08-10T09:22:43.322Z,1.33
2022-08-10T09:27:50.056Z,1.20
2022-08-10T09:36:27.001Z,1.10
2022-08-10T09:38:36.409Z,1.30
2022-08-10T09:43:51.850Z,1.20
2022-08-10T09:49:16.063Z,1.50
2022-08-10T09:54:40.156Z,1.20
2022-08-10T10:00:03.066Z,1.20
2022-08-10T10:05:19.593Z,1.10
2022-08-10T10:10:36.758Z,1.00
2022-08-10T10:16:33.525Z,0.95
2022-08-10T10:22:27.155Z,1.10
2022-08-10T10:27:52.037Z,1.00
2022-08-10T10:33:08.947Z,1.20
2022-08-10T10:38:18.373Z,1.27
2022-08-10T10:43:35.473Z,1.20
2022-08-10T10:49:02.061Z,1.50
2022-08-10T10:54:10.092Z,1.43
2022-08-10T11:00:04.963Z,1.50
2022-08-10T11:05:32.744Z,1.30
2022-08-10T11:10:47.186Z,1.15
2022-08-10T11:15:51.135Z,1.60
2022-08-10T11:21:07.610Z,1.77
2022-08-10T11:26:13.747Z,1.30
2022-08-10T11:31:24.929Z,1.15
2022-08-10T11:36:32.501Z,1.02
2022-08-10T11:42:09.714Z,1.15
2022-08-10T11:47:18.022Z,0.95
2022-08-10T11:52:35.372Z,0.98
2022-08-10T11:57:53.406Z,1.17
2022-08-10T12:03:06.446Z,1.25
2022-08-10T12:10:02.576Z,1.20
2022-08-10T12:14:17.952Z,1.20
2022-08-10T12:19:29.633Z,1.25
2022-08-10T12:24:57.781Z,1.20
2022-08-10T12:30:08.064Z,1.20
2022-08-10T12:35:26.462Z,1.30
2022-08-10T12:40:36.119Z,1.10
2022-08-10T12:46:13.231Z,1.10
2022-08-10T12:51:25.981Z,1.10
2022-08-10T12:56:40.049Z,0.98
2022-08-10T13:02:06.328Z,0.98
2022-08-10T13:08:26.110Z,1.20
2022-08-10T13:12:40.501Z,1.35
2022-08-10T13:17:49.805Z,1.10
2022-08-10T13:23:00.035Z,1.08
2022-08-10T13:28:36.542Z,1.00
2022-08-10T13:34:39.725Z,1.20
2022-08-10T13:39:00.728Z,0.95
2022-08-10T13:44:05.233Z,1.10
2022-08-10T13:49:11.918Z,1.20
2022-08-10T13:54:19.817Z,1.00
2022-08-10T14:04:49.988Z,1.25
2022-08-10T14:09:54.573Z,1.20
2022-08-10T14:14:59.905Z,1.30
2022-08-10T14:20:13.382Z,0.90
2022-08-10T14:25:18.395Z,1.17
2022-08-10T14:30:30.849Z,1.42
2022-08-10T14:36:21.253Z,1.15
2022-08-10T14:41:04.717Z,1.20
2022-08-10T14:46:11.371Z,1.30
2022-08-10T14:51:26.954Z,1.00
2022-08-10T14:56:49.832Z,1.20
2022-08-10T15:02:40.373Z,1.25
2022-08-10T15:07:30.468Z,1.10
2022-08-10T15:12:39.723Z,1.02
2022-08-10T15:17:57.493Z,0.80
2022-08-10T15:23:06.776Z,1.00
2022-08-10T15:28:16.695Z,1.10
2022-08-10T15:34:02.396Z,1.10
2022-08-10T15:39:16.732Z,0.90
2022-08-10T15:44:38.257Z,1.00
2022-08-10T15:49:45.774Z,1.13
2022-08-10T15:54:58.717Z,1.17
2022-08-10T16:00:09.805Z,1.20
2022-08-10T16:06:00.948Z,0.90
2022-08-10T16:10:53.499Z,1.08
2022-08-10T16:16:03.752Z,1.20
2022-08-10T16:21:13.651Z,1.60
2022-08-10T16:26:25.053Z,1.30
2022-08-10T16:31:32.986Z,1.40
2022-08-10T16:36:45.469Z,1.20
2022-08-10T16:42:03.558Z,1.20
2022-08-10T16:47:11.416Z,1.20
2022-08-10T16:52:16.794Z,1.20
2022-08-10T16:57:22.416Z,1.40
2022-08-10T17:02:29.770Z,1.15
2022-08-10T17:07:34.622Z,1.10
2022-08-10T17:12:40.930Z,1.17
2022-08-10T17:17:52.128Z,1.10
2022-08-10T17:23:01.635Z,1.17
2022-08-10T17:28:09.234Z,1.50
2022-08-10T17:33:15.331Z,1.50
2022-08-10T17:38:30.888Z,1.30
2022-08-10T17:43:46.228Z,1.30
2022-08-10T17:49:01.700Z,1.20
2022-08-10T17:54:09.900Z,1.50
2022-08-10T17:59:17.467Z,1.50
2022-08-10T18:04:22.459Z,1.42
2022-08-10T18:09:35.688Z,1.20
2022-08-10T18:14:43.702Z,1.67
2022-08-10T18:19:52.032Z,1.57
2022-08-10T18:24:58.561Z,1.55
2022-08-10T18:30:08.668Z,1.33
2022-08-10T18:35:16.265Z,1.48
2022-08-10T18:40:20.771Z,1.40
2022-08-10T18:45:44.843Z,1.20
2022-08-10T18:50:51.781Z,1.80
2022-08-10T18:56:19.572Z,1.63
2022-08-10T19:01:48.053Z,1.67
2022-08-10T19:06:59.762Z,1.35
2022-08-10T19:18:21.919Z,1.77
2022-08-10T19:44:43.496Z,1.48
2022-08-10T19:51:23.831Z,2.10
2022-08-10T20:04:05.079Z,1.35
2022-08-10T20:09:45.746Z,1.73
2022-08-10T20:15:03.439Z,1.77
2022-08-10T20:20:19.483Z,1.85
2022-08-10T20:25:32.111Z,1.90
2022-08-10T20:30:42.759Z,1.95
2022-08-10T20:35:49.219Z,1.77
2022-08-10T20:41:03.827Z,1.70
2022-08-10T20:46:23.293Z,1.70
2022-08-10T20:51:59.403Z,1.83
2022-08-10T21:02:41.728Z,1.80
2022-08-10T21:08:10.087Z,2.15
2022-08-10T21:13:50.976Z,2.03
2022-08-10T21:19:26.078Z,1.85
2022-08-10T21:24:42.442Z,1.85
2022-08-10T21:30:09.287Z,2.00
2022-08-10T21:35:37.646Z,2.00
2022-08-10T21:41:17.545Z,2.08
2022-08-10T21:47:02.946Z,2.15
2022-08-10T21:52:40.637Z,2.05
2022-08-10T21:58:03.233Z,2.53
2022-08-10T22:03:26.135Z,2.00
2022-08-10T22:09:04.797Z,2.10
2022-08-10T22:14:32.104Z,2.20
2022-08-10T22:20:03.005Z,2.17
2022-08-10T22:25:52.080Z,2.40
2022-08-10T22:37:17.817Z,2.33
2022-08-10T22:42:58.912Z,2.28
2022-08-10T22:48:29.868Z,2.03
2022-08-10T22:54:01.482Z,2.30
2022-08-10T22:59:08.004Z,2.25
2022-08-10T23:04:26.756Z,2.17
2022-08-10T23:09:42.151Z,2.25
2022-08-10T23:14:59.192Z,2.30
2022-08-10T23:20:13.215Z,2.30
2022-08-10T23:25:22.882Z,2.20
2022-08-10T23:30:38.720Z,2.30
2022-08-10T23:36:30.464Z,2.50
2022-08-10T23:41:26.061Z,2.40
2022-08-10T23:46:38.382Z,2.22
2022-08-10T23:51:55.171Z,2.50
2022-08-10T23:57:02.148Z,2.53
